createdAt,value
2022-11-10T00:00:49.211Z,70.13
2022-11-10T00:03:35.983Z,65.47
2022-11-10T00:06:21.621Z,69.00
2022-11-10T00:09:07.722Z,69.75
2022-11-10T00:11:53.502Z,69.00
2022-11-10T00:14:58.075Z,64.60
2022-11-10T00:17:43.540Z,70.00
2022-11-10T00:20:29.079Z,76.38
2022-11-10T00:23:14.870Z,69.25
2022-11-10T00:26:00.284Z,66.75
2022-11-10T00:28:46.509Z,71.95
2022-11-10T00:31:31.732Z,67.88
2022-11-10T00:34:17.496Z,70.15
2022-11-10T00:37:03.602Z,68.65
2022-11-10T00:39:49.140Z,69.10
2022-11-10T00:42:34.697Z,72.88
2022-11-10T00:45:20.224Z,69.60
2022-11-10T00:48:05.902Z,65.00
2022-11-10T00:50:52.591Z,68.18
2022-11-10T00:53:38.240Z,70.05
2022-11-10T00:56:24.420Z,70.00
2022-11-10T00:59:09.893Z,67.20
2022-11-10T01:01:55.668Z,68.88
2022-11-10T01:04:41.387Z,66.75
2022-11-10T01:07:26.888Z,71.50
2022-11-10T01:10:12.523Z,65.60
2022-11-10T01:12:58.140Z,70.38
2022-11-10T01:15:44.145Z,68.68
2022-11-10T01:18:29.709Z,66.68
2022-11-10T01:21:15.180Z,70.60
2022-11-10T01:24:01.085Z,66.63
2022-11-10T01:26:46.228Z,64.97
2022-11-10T01:29:31.693Z,67.00
2022-11-10T01:32:17.160Z,66.57
2022-11-10T01:35:03.050Z,67.70
2022-11-10T01:37:48.470Z,67.38
2022-11-10T01:40:34.383Z,67.72
2022-11-10T01:43:20.294Z,68.22
2022-11-10T01:46:16.659Z,66.75
2022-11-10T01:49:04.214Z,67.07
2022-11-10T01:52:04.759Z,63.92
2022-11-10T01:54:50.905Z,63.05
2022-11-10T01:57:37.093Z,64.95
2022-11-10T02:00:23.741Z,74.20
2022-11-10T02:03:25.828Z,64.07
2022-11-10T02:06:11.983Z,63.25
2022-11-10T02:09:01.045Z,66.07
2022-11-10T02:11:47.805Z,61.67
2022-11-10T02:14:33.287Z,59.25
2022-11-10T02:17:19.206Z,62.55
2022-11-10T02:20:10.305Z,59.03
2022-11-10T02:22:55.579Z,59.20
2022-11-10T02:25:41.440Z,57.22
2022-11-10T02:28:27.459Z,63.40
2022-11-10T02:31:13.120Z,58.70
2022-11-10T02:33:58.358Z,63.67
2022-11-10T02:36:43.738Z,58.00
2022-11-10T02:39:29.478Z,57.00
2022-11-10T02:42:15.257Z,55.67
2022-11-10T02:45:01.350Z,52.67
2022-11-10T02:47:46.925Z,50.78
2022-11-10T02:50:32.698Z,50.47
2022-11-10T02:53:19.871Z,54.63
2022-11-10T02:56:06.409Z,45.85
2022-11-10T02:58:51.814Z,52.90
2022-11-10T03:01:37.259Z,43.88
2022-11-10T03:04:22.660Z,48.67
2022-11-10T03:07:08.237Z,43.70
2022-11-10T03:09:53.936Z,45.50
2022-11-10T03:12:40.298Z,45.22
2022-11-10T03:15:26.692Z,44.33
2022-11-10T03:18:12.537Z,45.70
2022-11-10T03:20:57.993Z,42.42
2022-11-10T03:23:43.986Z,50.33
2022-11-10T03:26:29.285Z,51.17
2022-11-10T03:29:15.155Z,47.08
2022-11-10T03:32:00.838Z,45.28
2022-11-10T03:34:46.616Z,50.67
2022-11-10T03:37:32.290Z,45.35
2022-11-10T03:40:17.796Z,47.58
2022-11-10T03:43:03.342Z,45.97
2022-11-10T03:45:49.146Z,48.78
2022-11-10T03:48:34.628Z,48.70
2022-11-10T03:51:20.291Z,43.80
2022-11-10T03:54:06.162Z,46.58
2022-11-10T03:56:52.116Z,43.90
2022-11-10T03:59:37.525Z,49.72
2022-11-10T04:02:22.987Z,44.17
2022-11-10T04:05:27.678Z,50.25
2022-11-10T04:08:34.310Z,47.42
2022-11-10T04:11:39.704Z,49.17
2022-11-10T04:14:43.910Z,46.88
2022-11-10T04:17:31.395Z,48.22
2022-11-10T04:20:17.279Z,46.95
2022-11-10T04:23:21.435Z,46.40
2022-11-10T04:26:28.086Z,47.67
2022-11-10T04:29:14.477Z,46.53
2022-11-10T04:32:00.391Z,51.00
2022-11-10T04:34:45.980Z,45.80
2022-11-10T04:37:31.485Z,48.55
2022-11-10T04:40:16.800Z,46.17
2022-11-10T04:43:02.298Z,47.53
2022-11-10T04:45:48.038Z,49.33
2022-11-10T04:48:35.236Z,49.97
2022-11-10T04:51:23.648Z,48.25
2022-11-10T04:54:11.312Z,57.95
2022-11-10T04:56:57.108Z,53.90
2022-11-10T04:59:42.675Z,62.50
2022-11-10T05:02:28.135Z,47.50
2022-11-10T05:05:13.638Z,56.97
2022-11-10T05:07:59.530Z,56.97
2022-11-10T05:10:45.185Z,51.63
2022-11-10T05:13:31.030Z,53.22
2022-11-10T05:16:17.343Z,54.78
2022-11-10T05:19:02.775Z,46.75
2022-11-10T05:21:47.991Z,48.65
2022-11-10T05:24:33.918Z,55.03
2022-11-10T05:27:19.566Z,50.05
2022-11-10T05:30:06.145Z,58.38
2022-11-10T05:32:51.713Z,48.42
2022-11-10T05:35:37.860Z,60.08
2022-11-10T05:38:23.560Z,53.03
2022-11-10T05:41:08.968Z,53.83
2022-11-10T05:43:54.783Z,53.70
2022-11-10T05:46:40.459Z,66.13
2022-11-10T05:49:27.514Z,59.13
2022-11-10T05:52:13.452Z,63.50
2022-11-10T05:54:58.845Z,69.88
2022-11-10T05:57:46.042Z,61.95
2022-11-10T06:00:33.631Z,72.80
2022-11-10T06:03:19.912Z,67.88
2022-11-10T06:06:05.948Z,67.35
2022-11-10T06:08:52.079Z,72.00
2022-11-10T06:11:37.517Z,68.22
2022-11-10T06:14:23.009Z,61.88
2022-11-10T06:17:08.679Z,58.05
2022-11-10T06:19:54.495Z,55.83
2022-11-10T06:22:41.090Z,52.22
2022-11-10T06:25:28.852Z,64.18
2022-11-10T06:28:15.015Z,57.83
2022-11-10T06:31:00.698Z,67.20
2022-11-10T06:33:46.054Z,71.53
2022-11-10T06:36:32.465Z,74.15
2022-11-10T06:39:18.051Z,69.97
2022-11-10T06:42:03.905Z,73.88
2022-11-10T06:44:49.180Z,73.68
2022-11-10T06:47:34.827Z,71.45
2022-11-10T06:50:20.286Z,76.93
2022-11-10T06:53:05.801Z,74.03
2022-11-10T06:55:51.131Z,80.32
2022-11-10T06:58:36.716Z,79.20
2022-11-10T07:01:26.507Z,83.68
2022-11-10T07:04:19.577Z,81.40
2022-11-10T07:07:06.360Z,85.88
2022-11-10T07:09:51.810Z,88.82
2022-11-10T07:12:37.235Z,86.95
2022-11-10T07:15:23.083Z,81.72
2022-11-10T07:18:09.019Z,86.43
2022-11-10T07:20:54.779Z,82.43
2022-11-10T07:23:40.683Z,75.38
2022-11-10T07:26:26.683Z,84.68
2022-11-10T07:29:12.047Z,83.57
2022-11-10T07:31:57.752Z,78.72
2022-11-10T07:34:43.194Z,82.55
2022-11-10T07:37:29.938Z,77.53
2022-11-10T07:40:15.817Z,86.00
2022-11-10T07:43:00.974Z,79.85
2022-11-10T07:45:46.667Z,82.90
2022-11-10T07:48:32.164Z,84.53
2022-11-10T07:51:17.659Z,80.18
2022-11-10T07:54:03.533Z,86.13
2022-11-10T07:56:49.214Z,87.82
2022-11-10T07:59:34.848Z,89.07
2022-11-10T08:02:20.507Z,90.03
2022-11-10T08:05:06.272Z,87.45
2022-11-10T08:07:53.435Z,88.88
2022-11-10T08:10:40.447Z,84.43
2022-11-10T08:13:26.197Z,95.25
2022-11-10T08:16:11.876Z,91.72
2022-11-10T08:18:57.396Z,97.18
2022-11-10T08:21:42.676Z,96.57
2022-11-10T08:24:28.453Z,91.93
2022-11-10T08:27:14.002Z,99.75
2022-11-10T08:29:59.618Z,86.80
2022-11-10T08:32:44.706Z,90.60
2022-11-10T08:35:34.287Z,101.22
2022-11-10T08:38:24.515Z,83.03
2022-11-10T08:41:09.945Z,96.30
2022-11-10T08:43:55.463Z,92.90
2022-11-10T08:46:44.409Z,91.00
2022-11-10T08:49:29.995Z,93.20
2022-11-10T08:52:15.396Z,88.32
2022-11-10T08:55:00.811Z,98.63
2022-11-10T08:57:47.403Z,102.20
2022-11-10T09:00:33.408Z,90.40
2022-11-10T09:03:19.188Z,100.68
2022-11-10T09:06:05.235Z,96.47
2022-11-10T09:08:50.879Z,89.93
2022-11-10T09:11:36.467Z,88.43
2022-11-10T09:14:22.568Z,96.53
2022-11-10T09:17:08.568Z,90.13
2022-11-10T09:19:53.794Z,93.45
2022-11-10T09:22:40.157Z,88.05
2022-11-10T09:25:25.732Z,93.95
2022-11-10T09:28:13.474Z,89.75
2022-11-10T09:30:59.738Z,91.03
2022-11-10T09:33:45.486Z,84.38
2022-11-10T09:36:31.074Z,88.13
2022-11-10T09:39:18.485Z,87.78
2022-11-10T09:42:06.774Z,83.32
2022-11-10T09:45:00.278Z,94.80
2022-11-10T09:47:58.127Z,84.93
2022-11-10T09:50:58.505Z,83.65
2022-11-10T09:53:50.441Z,75.30
2022-11-10T09:56:37.756Z,80.25
2022-11-10T09:59:34.549Z,84.13
2022-11-10T10:02:30.837Z,77.80
2022-11-10T10:05:51.824Z,85.50
2022-11-10T10:08:43.347Z,81.50
2022-11-10T10:12:03.612Z,78.85
2022-11-10T10:15:20.785Z,79.50
2022-11-10T10:18:07.697Z,75.78
2022-11-10T10:20:59.103Z,79.43
2022-11-10T10:24:09.513Z,72.97
2022-11-10T10:26:59.738Z,79.57
2022-11-10T10:29:49.313Z,78.15
2022-11-10T10:35:20.647Z,70.68
2022-11-10T10:38:16.579Z,76.38
2022-11-10T10:41:18.286Z,63.45
2022-11-10T10:44:13.312Z,66.97
2022-11-10T10:47:00.558Z,63.53
2022-11-10T10:49:46.213Z,70.55
2022-11-10T10:52:32.474Z,64.63
2022-11-10T10:55:18.158Z,67.60
2022-11-10T10:58:20.330Z,62.10
2022-11-10T11:01:24.167Z,63.67
2022-11-10T11:04:36.943Z,59.42
2022-11-10T11:07:26.077Z,63.20
2022-11-10T11:10:44.333Z,61.33
2022-11-10T11:13:30.247Z,65.38
2022-11-10T11:16:15.541Z,64.38
2022-11-10T11:19:01.405Z,61.28
2022-11-10T11:22:11.781Z,58.58
2022-11-10T11:25:18.863Z,53.05
2022-11-10T11:28:26.146Z,55.97
2022-11-10T11:31:27.001Z,55.83
2022-11-10T11:34:16.914Z,53.60
2022-11-10T11:37:10.439Z,56.15
2022-11-10T11:40:21.112Z,55.15
2022-11-10T11:43:34.828Z,55.85
2022-11-10T11:46:49.493Z,57.50
2022-11-10T11:49:56.818Z,53.70
2022-11-10T11:53:03.282Z,56.17
2022-11-10T11:56:05.149Z,81.72
2022-11-10T11:59:09.414Z,63.70
2022-11-10T12:02:38.457Z,56.08
2022-11-10T12:05:44.133Z,55.28
2022-11-10T12:08:39.865Z,58.47
2022-11-10T12:11:52.852Z,54.85
2022-11-10T12:14:55.542Z,60.58
2022-11-10T12:17:51.532Z,53.55
2022-11-10T12:20:58.554Z,55.25
2022-11-10T12:24:15.691Z,58.20
2022-11-10T12:27:12.999Z,53.25
2022-11-10T12:30:04.352Z,57.78
2022-11-10T12:32:59.398Z,56.55
2022-11-10T12:35:46.727Z,54.10
2022-11-10T12:38:48.770Z,54.33
2022-11-10T12:41:46.129Z,86.00
2022-11-10T12:44:35.154Z,57.28
2022-11-10T12:47:25.140Z,51.40
2022-11-10T12:50:17.027Z,51.38
2022-11-10T12:53:11.258Z,50.88
2022-11-10T12:56:02.967Z,53.00
2022-11-10T12:58:48.462Z,49.55
2022-11-10T13:01:34.250Z,57.20
2022-11-10T13:04:23.999Z,51.28
2022-11-10T13:07:13.503Z,51.05
2022-11-10T13:10:25.646Z,49.00
2022-11-10T13:13:17.248Z,51.22
2022-11-10T13:16:03.130Z,53.58
2022-11-10T13:18:53.673Z,52.03
2022-11-10T13:22:02.899Z,53.67
2022-11-10T13:24:48.244Z,52.20
2022-11-10T13:27:42.778Z,51.10
2022-11-10T13:30:45.452Z,50.08
2022-11-10T13:33:38.156Z,57.80
2022-11-10T13:36:37.392Z,53.85
2022-11-10T13:42:12.133Z,52.60
2022-11-10T13:45:37.041Z,53.80
2022-11-10T13:48:31.572Z,49.60
2022-11-10T13:51:37.742Z,48.75
2022-11-10T13:54:29.285Z,49.80
2022-11-10T13:57:21.721Z,49.38
2022-11-10T14:00:19.624Z,52.13
2022-11-10T14:03:07.194Z,53.53
2022-11-10T14:06:03.473Z,49.90
2022-11-10T14:09:10.147Z,51.30
2022-11-10T14:12:17.691Z,52.65
2022-11-10T14:15:12.704Z,52.03
2022-11-10T14:17:58.930Z,54.85
2022-11-10T14:20:46.667Z,49.63
2022-11-10T14:23:38.359Z,51.95
2022-11-10T14:26:37.961Z,48.17
2022-11-10T14:29:41.409Z,51.53
2022-11-10T14:32:27.701Z,49.83
2022-11-10T14:35:26.558Z,50.05
2022-11-10T14:38:24.669Z,49.40
2022-11-10T14:41:18.717Z,51.03
2022-11-10T14:44:07.173Z,62.55
2022-11-10T14:46:54.834Z,53.88
2022-11-10T14:49:40.546Z,59.72
2022-11-10T14:52:26.336Z,71.32
2022-11-10T14:55:22.004Z,53.22
2022-11-10T14:58:10.753Z,53.10
2022-11-10T15:00:57.069Z,58.35
2022-11-10T15:03:43.084Z,53.05
2022-11-10T15:06:30.081Z,57.67
2022-11-10T15:09:29.411Z,51.15
2022-11-10T15:15:18.965Z,51.30
2022-11-10T15:18:04.749Z,53.90
2022-11-10T15:21:03.125Z,50.92
2022-11-10T15:23:57.413Z,60.47
2022-11-10T15:26:43.589Z,57.58
2022-11-10T15:29:30.425Z,55.22
2022-11-10T15:32:20.413Z,64.28
2022-11-10T15:35:29.449Z,58.97
2022-11-10T15:38:20.546Z,60.05
2022-11-10T15:41:12.862Z,56.38
2022-11-10T15:44:20.313Z,64.18
2022-11-10T15:47:06.803Z,59.15
2022-11-10T15:49:52.385Z,56.90
2022-11-10T15:52:38.740Z,51.20
2022-11-10T15:55:24.786Z,53.00
2022-11-10T15:58:16.982Z,61.13
2022-11-10T16:01:03.500Z,56.05
2022-11-10T16:03:49.751Z,54.58
2022-11-10T16:06:35.364Z,56.67
2022-11-10T16:09:21.106Z,59.67
2022-11-10T16:12:13.145Z,56.17
2022-11-10T16:14:59.847Z,58.47
2022-11-10T16:17:45.460Z,61.85
2022-11-10T16:20:30.704Z,57.55
2022-11-10T16:23:16.709Z,63.42
2022-11-10T16:26:04.431Z,58.75
2022-11-10T16:28:50.180Z,51.72
2022-11-10T16:31:35.284Z,53.10
2022-11-10T16:34:20.992Z,55.30
2022-11-10T16:37:06.518Z,55.15
2022-11-10T16:39:51.744Z,55.42
2022-11-10T16:42:37.413Z,50.88
2022-11-10T16:45:30.075Z,47.30
2022-11-10T16:48:18.587Z,52.35
2022-11-10T16:51:04.413Z,51.13
2022-11-10T16:53:52.921Z,50.75
2022-11-10T16:56:38.170Z,54.50
2022-11-10T16:59:24.087Z,54.25
2022-11-10T17:02:35.793Z,56.88
2022-11-10T17:05:21.885Z,51.50
2022-11-10T17:08:16.095Z,51.13
2022-11-10T17:11:02.134Z,55.13
2022-11-10T17:13:47.772Z,61.15
2022-11-10T17:16:38.667Z,52.85
2022-11-10T17:19:26.649Z,51.03
2022-11-10T17:22:16.769Z,113.10
2022-11-10T17:25:03.134Z,82.03
2022-11-10T17:27:48.777Z,82.63
2022-11-10T17:30:36.402Z,72.85
2022-11-10T17:33:22.668Z,53.03
2022-11-10T17:36:14.462Z,62.83
2022-11-10T17:39:00.193Z,53.90
2022-11-10T17:41:45.910Z,58.13
2022-11-10T17:44:31.445Z,58.92
2022-11-10T17:47:17.029Z,52.35
2022-11-10T17:50:02.419Z,51.97
2022-11-10T17:52:49.125Z,48.80
2022-11-10T17:55:36.890Z,46.60
2022-11-10T17:58:22.935Z,49.35
2022-11-10T18:01:17.681Z,50.65
2022-11-10T18:04:03.619Z,53.75
2022-11-10T18:06:49.647Z,51.97
2022-11-10T18:09:35.138Z,47.80
2022-11-10T18:12:24.052Z,48.67
2022-11-10T18:15:15.530Z,50.58
2022-11-10T18:18:01.291Z,51.85
2022-11-10T18:20:47.587Z,52.70
2022-11-10T18:23:33.713Z,48.00
2022-11-10T18:26:19.562Z,52.75
2022-11-10T18:29:05.134Z,57.67
2022-11-10T18:31:50.717Z,50.70
2022-11-10T18:34:36.203Z,54.00
2022-11-10T18:37:22.257Z,59.53
2022-11-10T18:40:08.112Z,60.20
2022-11-10T18:43:05.954Z,62.58
2022-11-10T18:48:40.759Z,60.08
2022-11-10T18:51:26.557Z,58.58
2022-11-10T18:54:13.096Z,64.60
2022-11-10T18:56:58.957Z,59.15
2022-11-10T18:59:45.491Z,65.25
2022-11-10T19:02:32.245Z,52.92
2022-11-10T19:05:17.662Z,52.72
2022-11-10T19:08:03.753Z,57.53
2022-11-10T19:10:49.269Z,54.28
2022-11-10T19:13:35.293Z,58.03
2022-11-10T19:16:21.522Z,56.03
2022-11-10T19:19:07.372Z,58.75
2022-11-10T19:21:52.735Z,60.25
2022-11-10T19:25:00.935Z,55.83
2022-11-10T19:27:59.379Z,61.90
2022-11-10T19:30:57.725Z,56.85
2022-11-10T19:34:46.044Z,54.30
2022-11-10T19:37:35.015Z,58.45
2022-11-10T19:43:07.393Z,62.80
2022-11-10T19:45:53.195Z,55.90
2022-11-10T19:48:38.979Z,65.32
2022-11-10T19:51:25.637Z,64.03
2022-11-10T19:54:13.626Z,71.10
2022-11-10T19:56:59.421Z,67.00
2022-11-10T19:59:44.825Z,68.60
2022-11-10T20:02:30.791Z,69.15
2022-11-10T20:05:17.560Z,65.15
2022-11-10T20:08:12.299Z,72.00
2022-11-10T20:11:08.400Z,64.75
2022-11-10T20:13:57.856Z,63.45
2022-11-10T20:16:43.346Z,65.55
2022-11-10T20:19:28.766Z,65.50
2022-11-10T20:22:14.717Z,67.63
2022-11-10T20:25:00.685Z,63.92
2022-11-10T20:27:46.473Z,69.25
2022-11-10T20:30:37.810Z,71.53
2022-11-10T20:33:24.735Z,81.30
2022-11-10T20:36:18.902Z,71.50
2022-11-10T20:39:07.403Z,69.10
2022-11-10T20:41:52.941Z,69.60
2022-11-10T20:44:38.543Z,75.47
2022-11-10T20:47:25.000Z,65.07
2022-11-10T20:50:14.937Z,71.45
2022-11-10T20:53:02.580Z,73.10
2022-11-10T20:55:56.205Z,67.00
2022-11-10T20:58:42.027Z,67.97
2022-11-10T21:01:27.806Z,72.72
2022-11-10T21:04:13.435Z,73.50
2022-11-10T21:06:59.417Z,75.00
2022-11-10T21:09:44.842Z,77.95
2022-11-10T21:12:49.159Z,76.28
2022-11-10T21:15:39.390Z,82.72
2022-11-10T21:18:31.337Z,77.95
2022-11-10T21:21:22.783Z,78.07
2022-11-10T21:24:09.413Z,85.15
2022-11-10T21:26:58.365Z,88.53
2022-11-10T21:29:43.574Z,93.10
2022-11-10T21:32:29.942Z,84.65
2022-11-10T21:35:16.528Z,94.15
2022-11-10T21:38:02.242Z,87.97
2022-11-10T21:40:48.026Z,89.72
2022-11-10T21:43:33.786Z,88.65
2022-11-10T21:46:19.768Z,87.72
2022-11-10T21:49:07.813Z,91.65
2022-11-10T21:51:55.204Z,93.57
2022-11-10T21:54:43.613Z,104.22
2022-11-10T21:57:29.823Z,98.85
2022-11-10T22:00:15.881Z,87.90
2022-11-10T22:03:03.781Z,76.55
2022-11-10T22:05:49.412Z,85.28
2022-11-10T22:08:36.246Z,79.65
2022-11-10T22:11:40.638Z,85.95
2022-11-10T22:14:44.779Z,86.30
2022-11-10T22:17:49.504Z,79.53
2022-11-10T22:20:35.178Z,72.88
2022-11-10T22:23:40.486Z,73.80
2022-11-10T22:26:26.097Z,76.50
2022-11-10T22:29:12.239Z,72.30
2022-11-10T22:31:58.122Z,70.93
2022-11-10T22:34:43.861Z,70.07
2022-11-10T22:37:33.144Z,75.40
2022-11-10T22:40:36.824Z,75.85
2022-11-10T22:43:40.867Z,79.50
2022-11-10T22:46:26.375Z,69.35
2022-11-10T22:49:14.403Z,68.60
2022-11-10T22:52:02.186Z,68.70
2022-11-10T22:54:48.152Z,71.00
2022-11-10T22:57:33.649Z,76.15
2022-11-10T23:00:19.272Z,73.32
2022-11-10T23:03:04.669Z,64.55
2022-11-10T23:05:56.296Z,63.53
2022-11-10T23:08:43.147Z,70.80
2022-11-10T23:11:30.410Z,64.68
2022-11-10T23:14:16.092Z,63.20
2022-11-10T23:17:01.359Z,65.25
2022-11-10T23:19:46.938Z,66.65
2022-11-10T23:22:32.480Z,62.35
2022-11-10T23:25:18.037Z,63.80
2022-11-10T23:28:03.997Z,67.40
2022-11-10T23:30:49.317Z,70.32
2022-11-10T23:33:36.115Z,70.32
2022-11-10T23:36:24.260Z,62.28
2022-11-10T23:39:09.976Z,65.50
2022-11-10T23:41:55.660Z,70.78
2022-11-10T23:44:41.328Z,71.78
2022-11-10T23:47:26.543Z,64.15
2022-11-10T23:50:12.432Z,70.43
2022-11-10T23:52:57.900Z,68.05
2022-11-10T23:55:43.671Z,71.70
2022-11-10T23:58:30.179Z,64.55
